sensor_id;sensor_type;location;lat;lon;timestamp;temperature;humidity
63013;DHT22;62113;45.624;11.700;2024-02-15T00:01:57;11.50;55.80
63013;DHT22;62113;45.624;11.700;2024-02-15T00:04:23;11.50;55.80
63013;DHT22;62113;45.624;11.700;2024-02-15T00:06:48;11.50;55.90
63013;DHT22;62113;45.624;11.700;2024-02-15T00:09:14;11.50;55.90
63013;DHT22;62113;45.624;11.700;2024-02-15T00:11:39;11.50;55.90
63013;DHT22;62113;45.624;11.700;2024-02-15T00:14:05;11.50;56.00
63013;DHT22;62113;45.624;11.700;2024-02-15T00:16:31;11.40;56.20
63013;DHT22;62113;45.624;11.700;2024-02-15T00:18:56;11.40;56.10
63013;DHT22;62113;45.624;11.700;2024-02-15T00:21:22;11.40;56.20
63013;DHT22;62113;45.624;11.700;2024-02-15T00:23:48;11.40;56.20
63013;DHT22;62113;45.624;11.700;2024-02-15T00:26:14;11.40;56.20
63013;DHT22;62113;45.624;11.700;2024-02-15T00:28:43;11.40;56.20
63013;DHT22;62113;45.624;11.700;2024-02-15T00:31:09;11.30;56.40
63013;DHT22;62113;45.624;11.700;2024-02-15T00:33:35;11.30;56.40
63013;DHT22;62113;45.624;11.700;2024-02-15T00:36:04;11.30;56.30
63013;DHT22;62113;45.624;11.700;2024-02-15T00:38:31;11.30;56.30
63013;DHT22;62113;45.624;11.700;2024-02-15T00:40:57;11.30;56.40
63013;DHT22;62113;45.624;11.700;2024-02-15T00:43:24;11.30;56.30
63013;DHT22;62113;45.624;11.700;2024-02-15T00:45:50;11.30;56.40
63013;DHT22;62113;45.624;11.700;2024-02-15T00:48:15;11.30;56.40
63013;DHT22;62113;45.624;11.700;2024-02-15T00:50:41;11.30;56.30
63013;DHT22;62113;45.624;11.700;2024-02-15T00:53:07;11.20;56.30
63013;DHT22;62113;45.624;11.700;2024-02-15T00:55:32;11.20;56.40
63013;DHT22;62113;45.624;11.700;2024-02-15T00:57:58;11.20;56.30
63013;DHT22;62113;45.624;11.700;2024-02-15T01:00:23;11.20;56.40
63013;DHT22;62113;45.624;11.700;2024-02-15T01:02:50;11.20;56.40
63013;DHT22;62113;45.624;11.700;2024-02-15T01:05:15;11.20;56.40
63013;DHT22;62113;45.624;11.700;2024-02-15T01:07:41;11.20;56.30
63013;DHT22;62113;45.624;11.700;2024-02-15T01:10:07;11.20;56.30
63013;DHT22;62113;45.624;11.700;2024-02-15T01:12:33;11.20;56.40
63013;DHT22;62113;45.624;11.700;2024-02-15T01:14:59;11.10;56.40
63013;DHT22;62113;45.624;11.700;2024-02-15T01:17:24;11.10;56.40
63013;DHT22;62113;45.624;11.700;2024-02-15T01:19:50;11.00;56.50
63013;DHT22;62113;45.624;11.700;2024-02-15T01:22:16;11.00;56.60
63013;DHT22;62113;45.624;11.700;2024-02-15T01:24:42;11.00;56.60
63013;DHT22;62113;45.624;11.700;2024-02-15T01:27:07;10.90;56.60
63013;DHT22;62113;45.624;11.700;2024-02-15T01:29:35;10.90;56.60
63013;DHT22;62113;45.624;11.700;2024-02-15T01:32:00;10.90;56.60
63013;DHT22;62113;45.624;11.700;2024-02-15T01:34:28;10.80;56.60
63013;DHT22;62113;45.624;11.700;2024-02-15T01:36:53;10.70;56.50
63013;DHT22;62113;45.624;11.700;2024-02-15T01:39:19;10.80;56.60
63013;DHT22;62113;45.624;11.700;2024-02-15T01:41:48;10.70;56.70
63013;DHT22;62113;45.624;11.700;2024-02-15T01:44:21;10.70;56.90
63013;DHT22;62113;45.624;11.700;2024-02-15T01:46:47;10.70;56.90
63013;DHT22;62113;45.624;11.700;2024-02-15T01:49:14;10.70;57.00
63013;DHT22;62113;45.624;11.700;2024-02-15T01:51:41;10.70;57.00
63013;DHT22;62113;45.624;11.700;2024-02-15T01:54:10;10.70;57.00
63013;DHT22;62113;45.624;11.700;2024-02-15T01:56:35;10.70;57.10
63013;DHT22;62113;45.624;11.700;2024-02-15T01:59:02;10.70;57.10
63013;DHT22;62113;45.624;11.700;2024-02-15T02:01:30;10.70;57.20
63013;DHT22;62113;45.624;11.700;2024-02-15T02:03:58;10.60;57.20
63013;DHT22;62113;45.624;11.700;2024-02-15T02:06:24;10.60;57.20
63013;DHT22;62113;45.624;11.700;2024-02-15T02:08:50;10.60;57.30
63013;DHT22;62113;45.624;11.700;2024-02-15T02:11:16;10.60;57.40
63013;DHT22;62113;45.624;11.700;2024-02-15T02:13:42;10.60;57.50
63013;DHT22;62113;45.624;11.700;2024-02-15T02:16:27;10.60;57.50
63013;DHT22;62113;45.624;11.700;2024-02-15T02:18:54;10.70;57.50
63013;DHT22;62113;45.624;11.700;2024-02-15T02:21:19;10.70;57.50
63013;DHT22;62113;45.624;11.700;2024-02-15T02:23:48;10.70;57.50
63013;DHT22;62113;45.624;11.700;2024-02-15T02:26:19;10.70;57.50
63013;DHT22;62113;45.624;11.700;2024-02-15T02:28:47;10.70;57.40
63013;DHT22;62113;45.624;11.700;2024-02-15T02:31:12;10.80;57.40
63013;DHT22;62113;45.624;11.700;2024-02-15T02:33:38;10.80;57.40
63013;DHT22;62113;45.624;11.700;2024-02-15T02:36:04;10.80;57.30
63013;DHT22;62113;45.624;11.700;2024-02-15T02:38:35;10.80;57.20
63013;DHT22;62113;45.624;11.700;2024-02-15T02:41:06;10.80;57.10
63013;DHT22;62113;45.624;11.700;2024-02-15T02:43:31;10.80;57.10
63013;DHT22;62113;45.624;11.700;2024-02-15T02:45:57;10.80;57.10
63013;DHT22;62113;45.624;11.700;2024-02-15T02:48:22;10.80;57.10
63013;DHT22;62113;45.624;11.700;2024-02-15T02:50:49;10.80;57.10
63013;DHT22;62113;45.624;11.700;2024-02-15T02:53:15;10.70;57.10
63013;DHT22;62113;45.624;11.700;2024-02-15T02:55:41;10.70;57.20
63013;DHT22;62113;45.624;11.700;2024-02-15T02:58:08;10.70;57.20
63013;DHT22;62113;45.624;11.700;2024-02-15T03:00:33;10.70;57.10
63013;DHT22;62113;45.624;11.700;2024-02-15T03:02:59;10.70;57.10
63013;DHT22;62113;45.624;11.700;2024-02-15T03:05:28;10.70;57.10
63013;DHT22;62113;45.624;11.700;2024-02-15T03:07:54;10.60;57.00
63013;DHT22;62113;45.624;11.700;2024-02-15T03:10:20;10.50;56.90
63013;DHT22;62113;45.624;11.700;2024-02-15T03:12:46;10.50;57.00
63013;DHT22;62113;45.624;11.700;2024-02-15T03:15:14;10.40;57.10
63013;DHT22;62113;45.624;11.700;2024-02-15T03:17:40;10.40;57.10
63013;DHT22;62113;45.624;11.700;2024-02-15T03:20:07;10.30;57.20
63013;DHT22;62113;45.624;11.700;2024-02-15T03:23:00;10.40;57.20
63013;DHT22;62113;45.624;11.700;2024-02-15T03:25:27;10.30;57.20
63013;DHT22;62113;45.624;11.700;2024-02-15T03:27:58;10.30;57.20
63013;DHT22;62113;45.624;11.700;2024-02-15T03:30:25;10.30;57.20
63013;DHT22;62113;45.624;11.700;2024-02-15T03:32:52;10.20;57.20
63013;DHT22;62113;45.624;11.700;2024-02-15T03:35:24;10.20;57.00
63013;DHT22;62113;45.624;11.700;2024-02-15T03:37:51;10.20;57.10
63013;DHT22;62113;45.624;11.700;2024-02-15T03:40:17;10.20;57.20
63013;DHT22;62113;45.624;11.700;2024-02-15T03:42:43;10.20;57.20
63013;DHT22;62113;45.624;11.700;2024-02-15T03:45:09;10.10;57.20
63013;DHT22;62113;45.624;11.700;2024-02-15T03:47:36;10.10;57.10
63013;DHT22;62113;45.624;11.700;2024-02-15T03:50:03;10.00;57.20
63013;DHT22;62113;45.624;11.700;2024-02-15T03:52:30;10.00;57.20
63013;DHT22;62113;45.624;11.700;2024-02-15T03:54:57;10.00;57.20
63013;DHT22;62113;45.624;11.700;2024-02-15T03:57:26;10.00;57.20
63013;DHT22;62113;45.624;11.700;2024-02-15T03:59:52;9.90;57.30
63013;DHT22;62113;45.624;11.700;2024-02-15T04:02:23;9.90;57.30
63013;DHT22;62113;45.624;11.700;2024-02-15T04:04:52;9.80;57.40
63013;DHT22;62113;45.624;11.700;2024-02-15T04:07:19;9.80;57.50
63013;DHT22;62113;45.624;11.700;2024-02-15T04:09:45;9.70;57.70
63013;DHT22;62113;45.624;11.700;2024-02-15T04:12:11;9.70;57.80
63013;DHT22;62113;45.624;11.700;2024-02-15T04:14:37;9.70;57.80
63013;DHT22;62113;45.624;11.700;2024-02-15T04:17:06;9.70;57.80
63013;DHT22;62113;45.624;11.700;2024-02-15T04:19:32;9.70;57.70
63013;DHT22;62113;45.624;11.700;2024-02-15T04:21:58;9.80;57.70
63013;DHT22;62113;45.624;11.700;2024-02-15T04:24:26;9.70;57.70
63013;DHT22;62113;45.624;11.700;2024-02-15T04:26:52;9.70;57.70
63013;DHT22;62113;45.624;11.700;2024-02-15T04:29:18;9.80;57.70
63013;DHT22;62113;45.624;11.700;2024-02-15T04:31:46;9.70;57.70
63013;DHT22;62113;45.624;11.700;2024-02-15T04:34:17;9.70;57.70
63013;DHT22;62113;45.624;11.700;2024-02-15T04:36:48;9.70;57.80
63013;DHT22;62113;45.624;11.700;2024-02-15T04:39:19;9.70;57.80
63013;DHT22;62113;45.624;11.700;2024-02-15T04:41:52;9.70;57.80
63013;DHT22;62113;45.624;11.700;2024-02-15T04:44:18;9.70;57.80
63013;DHT22;62113;45.624;11.700;2024-02-15T04:46:48;9.70;57.70
63013;DHT22;62113;45.624;11.700;2024-02-15T04:49:15;9.60;57.90
63013;DHT22;62113;45.624;11.700;2024-02-15T04:51:41;9.60;57.90
63013;DHT22;62113;45.624;11.700;2024-02-15T04:54:07;9.60;58.00
63013;DHT22;62113;45.624;11.700;2024-02-15T04:56:33;9.60;58.00
63013;DHT22;62113;45.624;11.700;2024-02-15T04:58:59;9.50;58.00
63013;DHT22;62113;45.624;11.700;2024-02-15T05:01:24;9.50;58.10
63013;DHT22;62113;45.624;11.700;2024-02-15T05:03:50;9.50;58.20
63013;DHT22;62113;45.624;11.700;2024-02-15T05:06:15;9.50;58.10
63013;DHT22;62113;45.624;11.700;2024-02-15T05:08:41;9.50;58.20
63013;DHT22;62113;45.624;11.700;2024-02-15T05:11:11;9.50;58.20
63013;DHT22;62113;45.624;11.700;2024-02-15T05:13:41;9.40;58.20
63013;DHT22;62113;45.624;11.700;2024-02-15T05:16:06;9.40;58.40
63013;DHT22;62113;45.624;11.700;2024-02-15T05:18:32;9.40;58.30
63013;DHT22;62113;45.624;11.700;2024-02-15T05:21:00;9.30;58.20
63013;DHT22;62113;45.624;11.700;2024-02-15T05:23:27;9.40;58.20
63013;DHT22;62113;45.624;11.700;2024-02-15T05:25:52;9.40;58.20
63013;DHT22;62113;45.624;11.700;2024-02-15T05:28:19;9.40;58.20
63013;DHT22;62113;45.624;11.700;2024-02-15T05:31:11;9.40;58.20
63013;DHT22;62113;45.624;11.700;2024-02-15T05:33:38;9.30;58.50
63013;DHT22;62113;45.624;11.700;2024-02-15T05:36:12;9.20;58.40
63013;DHT22;62113;45.624;11.700;2024-02-15T05:38:38;9.20;58.70
63013;DHT22;62113;45.624;11.700;2024-02-15T05:41:03;9.10;58.70
63013;DHT22;62113;45.624;11.700;2024-02-15T05:43:29;9.10;58.80
63013;DHT22;62113;45.624;11.700;2024-02-15T05:45:55;9.20;58.80
63013;DHT22;62113;45.624;11.700;2024-02-15T05:48:26;9.20;58.80
63013;DHT22;62113;45.624;11.700;2024-02-15T05:50:54;9.20;58.70
63013;DHT22;62113;45.624;11.700;2024-02-15T05:53:20;9.20;58.70
63013;DHT22;62113;45.624;11.700;2024-02-15T05:55:46;9.20;58.70
63013;DHT22;62113;45.624;11.700;2024-02-15T05:58:11;9.20;58.70
63013;DHT22;62113;45.624;11.700;2024-02-15T06:00:39;9.20;58.80
63013;DHT22;62113;45.624;11.700;2024-02-15T06:03:06;9.20;58.70
63013;DHT22;62113;45.624;11.700;2024-02-15T06:05:32;9.20;58.80
63013;DHT22;62113;45.624;11.700;2024-02-15T06:07:58;9.20;58.80
63013;DHT22;62113;45.624;11.700;2024-02-15T06:10:24;9.20;58.80
63013;DHT22;62113;45.624;11.700;2024-02-15T06:12:51;9.20;58.80
63013;DHT22;62113;45.624;11.700;2024-02-15T06:15:16;9.20;58.80
63013;DHT22;62113;45.624;11.700;2024-02-15T06:17:42;9.30;58.80
63013;DHT22;62113;45.624;11.700;2024-02-15T06:20:14;9.20;58.80
63013;DHT22;62113;45.624;11.700;2024-02-15T06:22:41;9.30;58.80
63013;DHT22;62113;45.624;11.700;2024-02-15T06:25:07;9.30;58.80
63013;DHT22;62113;45.624;11.700;2024-02-15T06:27:33;9.30;58.80
63013;DHT22;62113;45.624;11.700;2024-02-15T06:29:59;9.30;58.90
63013;DHT22;62113;45.624;11.700;2024-02-15T06:32:43;9.40;58.90
63013;DHT22;62113;45.624;11.700;2024-02-15T06:35:27;9.50;58.70
63013;DHT22;62113;45.624;11.700;2024-02-15T06:38:12;9.60;58.60
63013;DHT22;62113;45.624;11.700;2024-02-15T06:40:56;9.70;58.50
63013;DHT22;62113;45.624;11.700;2024-02-15T06:43:21;9.80;58.30
63013;DHT22;62113;45.624;11.700;2024-02-15T06:45:47;9.90;58.20
63013;DHT22;62113;45.624;11.700;2024-02-15T06:48:16;10.00;58.10
63013;DHT22;62113;45.624;11.700;2024-02-15T06:50:42;10.10;58.10
63013;DHT22;62113;45.624;11.700;2024-02-15T06:53:07;10.20;57.90
63013;DHT22;62113;45.624;11.700;2024-02-15T06:55:33;10.20;57.70
63013;DHT22;62113;45.624;11.700;2024-02-15T06:57:59;10.30;57.60
63013;DHT22;62113;45.624;11.700;2024-02-15T07:00:25;10.30;57.50
63013;DHT22;62113;45.624;11.700;2024-02-15T07:02:51;10.50;57.50
63013;DHT22;62113;45.624;11.700;2024-02-15T07:05:16;10.60;57.40
63013;DHT22;62113;45.624;11.700;2024-02-15T07:07:42;10.60;57.20
63013;DHT22;62113;45.624;11.700;2024-02-15T07:10:09;10.60;57.10
63013;DHT22;62113;45.624;11.700;2024-02-15T07:12:36;10.60;56.90
63013;DHT22;62113;45.624;11.700;2024-02-15T07:15:04;10.60;56.80
63013;DHT22;62113;45.624;11.700;2024-02-15T07:17:32;10.60;56.80
63013;DHT22;62113;45.624;11.700;2024-02-15T07:19:58;10.60;56.80
63013;DHT22;62113;45.624;11.700;2024-02-15T07:22:24;10.60;56.90
63013;DHT22;62113;45.624;11.700;2024-02-15T07:24:49;10.60;57.30
63013;DHT22;62113;45.624;11.700;2024-02-15T07:27:15;10.70;57.80
63013;DHT22;62113;45.624;11.700;2024-02-15T07:29:40;10.90;57.70
63013;DHT22;62113;45.624;11.700;2024-02-15T07:32:06;11.20;58.20
63013;DHT22;62113;45.624;11.700;2024-02-15T07:34:33;11.40;58.00
63013;DHT22;62113;45.624;11.700;2024-02-15T07:36:59;11.60;57.60
63013;DHT22;62113;45.624;11.700;2024-02-15T07:39:25;11.90;56.50
63013;DHT22;62113;45.624;11.700;2024-02-15T07:41:54;12.10;56.70
63013;DHT22;62113;45.624;11.700;2024-02-15T07:44:20;12.40;56.60
63013;DHT22;62113;45.624;11.700;2024-02-15T07:46:47;12.60;55.50
63013;DHT22;62113;45.624;11.700;2024-02-15T07:49:13;12.80;55.10
63013;DHT22;62113;45.624;11.700;2024-02-15T07:51:39;13.10;55.30
63013;DHT22;62113;45.624;11.700;2024-02-15T07:54:05;13.30;55.70
63013;DHT22;62113;45.624;11.700;2024-02-15T07:56:31;13.50;54.10
63013;DHT22;62113;45.624;11.700;2024-02-15T07:58:57;13.70;54.90
63013;DHT22;62113;45.624;11.700;2024-02-15T08:01:22;13.90;53.80
63013;DHT22;62113;45.624;11.700;2024-02-15T08:03:49;14.10;52.30
63013;DHT22;62113;45.624;11.700;2024-02-15T08:06:16;14.30;52.10
63013;DHT22;62113;45.624;11.700;2024-02-15T08:08:42;14.50;54.20
63013;DHT22;62113;45.624;11.700;2024-02-15T08:11:11;14.60;53.10
63013;DHT22;62113;45.624;11.700;2024-02-15T08:13:49;14.80;53.70
63013;DHT22;62113;45.624;11.700;2024-02-15T08:16:19;14.90;52.20
63013;DHT22;62113;45.624;11.700;2024-02-15T08:18:45;15.10;52.10
63013;DHT22;62113;45.624;11.700;2024-02-15T08:21:14;15.20;52.30
63013;DHT22;62113;45.624;11.700;2024-02-15T08:23:40;15.40;52.30
63013;DHT22;62113;45.624;11.700;2024-02-15T08:26:05;15.60;51.10
63013;DHT22;62113;45.624;11.700;2024-02-15T08:28:31;15.80;50.80
63013;DHT22;62113;45.624;11.700;2024-02-15T08:30:57;16.00;50.90
63013;DHT22;62113;45.624;11.700;2024-02-15T08:33:26;16.20;52.80
63013;DHT22;62113;45.624;11.700;2024-02-15T08:35:54;16.30;50.00
63013;DHT22;62113;45.624;11.700;2024-02-15T08:38:23;16.40;48.50
63013;DHT22;62113;45.624;11.700;2024-02-15T08:40:48;16.50;47.90
63013;DHT22;62113;45.624;11.700;2024-02-15T08:43:15;16.50;48.00
63013;DHT22;62113;45.624;11.700;2024-02-15T08:45:43;16.60;48.20
63013;DHT22;62113;45.624;11.700;2024-02-15T08:48:09;16.80;49.50
63013;DHT22;62113;45.624;11.700;2024-02-15T08:50:34;17.10;48.10
63013;DHT22;62113;45.624;11.700;2024-02-15T08:53:01;17.40;50.10
63013;DHT22;62113;45.624;11.700;2024-02-15T08:55:27;17.70;47.30
63013;DHT22;62113;45.624;11.700;2024-02-15T08:57:53;18.10;46.90
63013;DHT22;62113;45.624;11.700;2024-02-15T09:00:20;18.30;46.20
63013;DHT22;62113;45.624;11.700;2024-02-15T09:02:46;18.70;45.60
63013;DHT22;62113;45.624;11.700;2024-02-15T09:05:12;19.20;42.80
63013;DHT22;62113;45.624;11.700;2024-02-15T09:07:43;19.80;44.10
63013;DHT22;62113;45.624;11.700;2024-02-15T09:10:10;20.70;42.60
63013;DHT22;62113;45.624;11.700;2024-02-15T09:12:43;21.60;40.60
63013;DHT22;62113;45.624;11.700;2024-02-15T09:15:10;22.50;38.50
63013;DHT22;62113;45.624;11.700;2024-02-15T09:17:36;23.40;38.00
63013;DHT22;62113;45.624;11.700;2024-02-15T09:20:11;24.20;35.20
63013;DHT22;62113;45.624;11.700;2024-02-15T09:22:47;24.90;35.10
63013;DHT22;62113;45.624;11.700;2024-02-15T09:25:14;25.50;33.30
63013;DHT22;62113;45.624;11.700;2024-02-15T09:27:40;26.00;32.60
63013;DHT22;62113;45.624;11.700;2024-02-15T09:30:06;26.50;31.00
63013;DHT22;62113;45.624;11.700;2024-02-15T09:32:38;26.80;30.60
63013;DHT22;62113;45.624;11.700;2024-02-15T09:35:05;27.10;29.60
63013;DHT22;62113;45.624;11.700;2024-02-15T09:37:34;27.10;29.40
63013;DHT22;62113;45.624;11.700;2024-02-15T09:40:00;27.20;29.90
63013;DHT22;62113;45.624;11.700;2024-02-15T09:42:32;27.10;30.90
63013;DHT22;62113;45.624;11.700;2024-02-15T09:45:00;26.90;29.30
63013;DHT22;62113;45.624;11.700;2024-02-15T09:47:36;26.70;30.30
63013;DHT22;62113;45.624;11.700;2024-02-15T09:50:09;26.40;30.80
63013;DHT22;62113;45.624;11.700;2024-02-15T09:52:38;26.10;31.20
63013;DHT22;62113;45.624;11.700;2024-02-15T09:55:05;25.80;31.10
63013;DHT22;62113;45.624;11.700;2024-02-15T09:57:31;25.40;32.00
63013;DHT22;62113;45.624;11.700;2024-02-15T09:59:58;25.10;32.70
63013;DHT22;62113;45.624;11.700;2024-02-15T10:02:26;24.70;32.90
63013;DHT22;62113;45.624;11.700;2024-02-15T10:04:53;24.20;34.00
63013;DHT22;62113;45.624;11.700;2024-02-15T10:07:23;24.00;34.40
63013;DHT22;62113;45.624;11.700;2024-02-15T10:09:48;23.70;34.70
63013;DHT22;62113;45.624;11.700;2024-02-15T10:12:14;23.40;34.90
63013;DHT22;62113;45.624;11.700;2024-02-15T10:14:48;23.20;35.80
63013;DHT22;62113;45.624;11.700;2024-02-15T10:17:15;22.80;35.90
63013;DHT22;62113;45.624;11.700;2024-02-15T10:19:42;22.50;35.60
63013;DHT22;62113;45.624;11.700;2024-02-15T10:22:10;22.20;36.30
63013;DHT22;62113;45.624;11.700;2024-02-15T10:24:37;22.10;36.30
63013;DHT22;62113;45.624;11.700;2024-02-15T10:27:05;21.90;37.30
63013;DHT22;62113;45.624;11.700;2024-02-15T10:29:35;21.70;37.60
63013;DHT22;62113;45.624;11.700;2024-02-15T10:32:01;21.60;38.00
63013;DHT22;62113;45.624;11.700;2024-02-15T10:34:28;21.50;38.20
63013;DHT22;62113;45.624;11.700;2024-02-15T10:36:55;21.40;38.20
63013;DHT22;62113;45.624;11.700;2024-02-15T10:39:35;21.20;37.30
63013;DHT22;62113;45.624;11.700;2024-02-15T10:42:01;21.00;38.00
63013;DHT22;62113;45.624;11.700;2024-02-15T10:44:27;20.80;38.70
63013;DHT22;62113;45.624;11.700;2024-02-15T10:46:53;20.70;39.30
63013;DHT22;62113;45.624;11.700;2024-02-15T10:49:23;20.70;38.50
63013;DHT22;62113;45.624;11.700;2024-02-15T10:51:57;20.70;39.00
63013;DHT22;62113;45.624;11.700;2024-02-15T10:54:46;20.60;39.20
63013;DHT22;62113;45.624;11.700;2024-02-15T10:57:12;20.50;39.50
63013;DHT22;62113;45.624;11.700;2024-02-15T10:59:50;20.50;39.80
63013;DHT22;62113;45.624;11.700;2024-02-15T11:02:30;20.40;40.00
63013;DHT22;62113;45.624;11.700;2024-02-15T11:05:01;20.50;39.80
63013;DHT22;62113;45.624;11.700;2024-02-15T11:07:29;20.50;40.00
63013;DHT22;62113;45.624;11.700;2024-02-15T11:09:56;20.40;39.70
63013;DHT22;62113;45.624;11.700;2024-02-15T11:12:25;20.40;40.00
63013;DHT22;62113;45.624;11.700;2024-02-15T11:14:52;20.30;39.70
63013;DHT22;62113;45.624;11.700;2024-02-15T11:20:08;20.30;40.00
63013;DHT22;62113;45.624;11.700;2024-02-15T11:22:38;20.30;39.30
63013;DHT22;62113;45.624;11.700;2024-02-15T11:25:07;20.20;39.00
63013;DHT22;62113;45.624;11.700;2024-02-15T11:27:40;20.00;39.80
63013;DHT22;62113;45.624;11.700;2024-02-15T11:30:07;19.90;40.10
63013;DHT22;62113;45.624;11.700;2024-02-15T11:32:39;19.80;39.50
63013;DHT22;62113;45.624;11.700;2024-02-15T11:35:39;19.60;40.00
63013;DHT22;62113;45.624;11.700;2024-02-15T11:37:58;19.60;40.60
63013;DHT22;62113;45.624;11.700;2024-02-15T11:40:26;19.50;41.00
63013;DHT22;62113;45.624;11.700;2024-02-15T11:43:01;19.60;41.10
63013;DHT22;62113;45.624;11.700;2024-02-15T11:45:27;19.70;41.00
63013;DHT22;62113;45.624;11.700;2024-02-15T11:47:59;19.60;40.70
63013;DHT22;62113;45.624;11.700;2024-02-15T11:50:27;19.50;40.80
63013;DHT22;62113;45.624;11.700;2024-02-15T11:53:02;19.60;41.00
63013;DHT22;62113;45.624;11.700;2024-02-15T11:55:34;19.60;41.20
63013;DHT22;62113;45.624;11.700;2024-02-15T11:58:02;19.70;41.30
63013;DHT22;62113;45.624;11.700;2024-02-15T12:00:41;19.70;41.40
63013;DHT22;62113;45.624;11.700;2024-02-15T12:03:26;19.70;41.40
63013;DHT22;62113;45.624;11.700;2024-02-15T12:06:10;19.80;41.10
63013;DHT22;62113;45.624;11.700;2024-02-15T12:08:54;19.80;41.10
63013;DHT22;62113;45.624;11.700;2024-02-15T12:11:39;19.80;40.80
63013;DHT22;62113;45.624;11.700;2024-02-15T12:14:24;19.80;41.70
63013;DHT22;62113;45.624;11.700;2024-02-15T12:17:10;19.80;41.50
63013;DHT22;62113;45.624;11.700;2024-02-15T12:19:56;19.80;41.40
63013;DHT22;62113;45.624;11.700;2024-02-15T12:22:34;19.70;41.00
63013;DHT22;62113;45.624;11.700;2024-02-15T12:25:01;19.70;41.50
63013;DHT22;62113;45.624;11.700;2024-02-15T12:27:31;19.50;41.50
63013;DHT22;62113;45.624;11.700;2024-02-15T12:29:57;19.50;41.90
63013;DHT22;62113;45.624;11.700;2024-02-15T12:32:27;19.50;42.30
63013;DHT22;62113;45.624;11.700;2024-02-15T12:34:53;19.60;42.60
63013;DHT22;62113;45.624;11.700;2024-02-15T12:37:20;19.50;42.30
63013;DHT22;62113;45.624;11.700;2024-02-15T12:39:49;19.50;42.40
63013;DHT22;62113;45.624;11.700;2024-02-15T12:42:18;19.60;42.60
63013;DHT22;62113;45.624;11.700;2024-02-15T12:44:46;19.60;42.60
63013;DHT22;62113;45.624;11.700;2024-02-15T12:47:18;19.60;42.70
63013;DHT22;62113;45.624;11.700;2024-02-15T12:49:44;19.70;42.80
63013;DHT22;62113;45.624;11.700;2024-02-15T12:52:37;19.70;42.90
63013;DHT22;62113;45.624;11.700;2024-02-15T12:55:11;19.80;43.10
63013;DHT22;62113;45.624;11.700;2024-02-15T12:57:37;19.80;42.50
63013;DHT22;62113;45.624;11.700;2024-02-15T13:00:07;19.80;42.50
63013;DHT22;62113;45.624;11.700;2024-02-15T13:02:37;19.80;43.50
63013;DHT22;62113;45.624;11.700;2024-02-15T13:05:04;19.70;43.10
63013;DHT22;62113;45.624;11.700;2024-02-15T13:07:30;19.70;43.30
63013;DHT22;62113;45.624;11.700;2024-02-15T13:09:56;19.70;43.30
63013;DHT22;62113;45.624;11.700;2024-02-15T13:12:22;19.70;43.50
63013;DHT22;62113;45.624;11.700;2024-02-15T13:14:48;19.70;43.40
63013;DHT22;62113;45.624;11.700;2024-02-15T13:17:15;19.70;43.60
63013;DHT22;62113;45.624;11.700;2024-02-15T13:19:45;19.80;43.70
63013;DHT22;62113;45.624;11.700;2024-02-15T13:22:14;19.70;43.20
63013;DHT22;62113;45.624;11.700;2024-02-15T13:24:44;19.70;43.20
63013;DHT22;62113;45.624;11.700;2024-02-15T13:27:10;19.60;42.70
63013;DHT22;62113;45.624;11.700;2024-02-15T13:29:38;19.50;42.50
63013;DHT22;62113;45.624;11.700;2024-02-15T13:32:05;19.40;42.70
63013;DHT22;62113;45.624;11.700;2024-02-15T13:34:31;19.20;43.10
63013;DHT22;62113;45.624;11.700;2024-02-15T13:36:58;19.20;43.50
63013;DHT22;62113;45.624;11.700;2024-02-15T13:39:27;19.20;43.90
63013;DHT22;62113;45.624;11.700;2024-02-15T13:42:01;19.20;44.00
63013;DHT22;62113;45.624;11.700;2024-02-15T13:44:27;19.10;44.60
63013;DHT22;62113;45.624;11.700;2024-02-15T13:46:53;19.00;44.80
63013;DHT22;62113;45.624;11.700;2024-02-15T13:49:21;18.90;45.00
63013;DHT22;62113;45.624;11.700;2024-02-15T13:51:47;18.80;45.10
63013;DHT22;62113;45.624;11.700;2024-02-15T13:54:12;18.80;45.10
63013;DHT22;62113;45.624;11.700;2024-02-15T13:56:38;18.80;45.50
63013;DHT22;62113;45.624;11.700;2024-02-15T13:59:05;18.70;46.20
63013;DHT22;62113;45.624;11.700;2024-02-15T14:01:31;18.70;46.00
63013;DHT22;62113;45.624;11.700;2024-02-15T14:03:56;18.70;46.10
63013;DHT22;62113;45.624;11.700;2024-02-15T14:06:22;18.70;45.70
63013;DHT22;62113;45.624;11.700;2024-02-15T14:08:49;18.70;46.10
63013;DHT22;62113;45.624;11.700;2024-02-15T14:11:14;18.60;46.10
63013;DHT22;62113;45.624;11.700;2024-02-15T14:13:40;18.60;46.30
63013;DHT22;62113;45.624;11.700;2024-02-15T14:16:06;18.50;46.10
63013;DHT22;62113;45.624;11.700;2024-02-15T14:18:33;18.50;46.20
63013;DHT22;62113;45.624;11.700;2024-02-15T14:21:00;18.50;46.20
63013;DHT22;62113;45.624;11.700;2024-02-15T14:23:26;18.50;46.20
63013;DHT22;62113;45.624;11.700;2024-02-15T14:25:52;18.50;46.20
63013;DHT22;62113;45.624;11.700;2024-02-15T14:28:19;18.50;46.30
63013;DHT22;62113;45.624;11.700;2024-02-15T14:30:45;18.60;46.30
63013;DHT22;62113;45.624;11.700;2024-02-15T14:33:29;18.70;46.30
63013;DHT22;62113;45.624;11.700;2024-02-15T14:35:55;18.60;45.90
63013;DHT22;62113;45.624;11.700;2024-02-15T14:38:21;18.60;45.70
63013;DHT22;62113;45.624;11.700;2024-02-15T14:40:48;18.60;45.80
63013;DHT22;62113;45.624;11.700;2024-02-15T14:43:23;18.60;46.00
63013;DHT22;62113;45.624;11.700;2024-02-15T14:45:50;18.60;46.10
63013;DHT22;62113;45.624;11.700;2024-02-15T14:48:16;18.60;46.10
63013;DHT22;62113;45.624;11.700;2024-02-15T14:50:46;18.50;46.00
63013;DHT22;62113;45.624;11.700;2024-02-15T14:53:13;18.40;46.10
63013;DHT22;62113;45.624;11.700;2024-02-15T14:55:39;18.40;46.40
63013;DHT22;62113;45.624;11.700;2024-02-15T14:58:07;18.30;46.50
63013;DHT22;62113;45.624;11.700;2024-02-15T15:00:34;18.30;46.70
63013;DHT22;62113;45.624;11.700;2024-02-15T15:03:00;18.30;47.00
63013;DHT22;62113;45.624;11.700;2024-02-15T15:05:26;18.30;46.80
63013;DHT22;62113;45.624;11.700;2024-02-15T15:08:10;18.30;47.10
63013;DHT22;62113;45.624;11.700;2024-02-15T15:10:55;18.20;47.40
63013;DHT22;62113;45.624;11.700;2024-02-15T15:13:39;18.30;48.00
63013;DHT22;62113;45.624;11.700;2024-02-15T15:16:06;18.30;47.40
63013;DHT22;62113;45.624;11.700;2024-02-15T15:18:33;18.20;47.30
63013;DHT22;62113;45.624;11.700;2024-02-15T15:21:02;18.20;47.40
63013;DHT22;62113;45.624;11.700;2024-02-15T15:23:28;18.20;47.60
63013;DHT22;62113;45.624;11.700;2024-02-15T15:26:00;18.10;47.60
63013;DHT22;62113;45.624;11.700;2024-02-15T15:28:26;18.10;48.30